首页
METAR-TAF:

METAR-TAF

机场 :

雅温得, 喀麦隆

雅温得-恩西马兰国际机场

纬度: 03-50N, 经度: 011-31E, 海拔: 751米

当前天气观测

该预报发布于32分钟前的14:00 UTC
风速3节,风向,在南转南东之间变化
温度 31°C
湿度 40%
气压 1012 hPa
能見度: 4500
少量云层高于2300英尺

METAR: FKYS 221400Z 10003KT 010V150 4500 HZ FEW023 31/16 Q1012 NOSIG

时间: 15:32 (14:32 UTC)

预报

该预报发布于3小时和32分钟前的11:00 UTC
预报有效从22日的 12点(UTC)到 23日的 12点(UTC)
风速4节,风向多变
能見度: 5000
散云层高于1600英尺
成为
从 22日的 20点(UTC)到 22日的 22点(UTC)
多云层高于600英尺
短暂存在
从 23日的 03点(UTC)到 23日的 08点(UTC)
能見度: 2000
轻雾
成为
从 23日的 08点(UTC)到 23日的 10点(UTC)
散云层高于1600英尺

TAF: FKYS 221100Z 2212/2312 VRB04KT 5000 HZ SCT016 BECMG 2220/2222 BKN006 TEMPO 2303/2308 2000 BR BECMG 2308/2310 SCT016

超过4000个机场的气象观测和天气预报(METAR&TAF报告)。

可查询的气象台以黄色和红色小点在地图上表示。

将鼠标移到小点上方,可查看气象台名称。

然后点击查看天气观测和预报。

如需切换地图:点击带黑十字的绿色按钮放大地图;点击带横线的绿色按钮缩小地图;或者点击绿色箭头查看邻近地区的地图。


METAR-TAF: